Miramichi, Canada
Current Conditions -  °F | °C
As of 10:00 PM on Friday 24 Oct 2014 (Local Time) from CZBF Reporting Station
Light Rain Light Rain  
Wind Chill: 36°   Ceiling: 1500
Heat Index: 41°   Visibility: 5mi
Dew Point: 39°   Wind: 7mph
Humidity: 93%   Direction: 350°N
Pressure: 29.66"   Gusts: NA
Location:  47.12°N, 65.17°W
Report Text: CZBF 250100Z 35006KT 310V010 5SM -RA BR FEW007 OVC015 05/04 A2966 RMK SF1NS8 SF TR SLP046
Loading
Personal Weather Stations






























Interactive Weather Map
Tropical Storm Tracking
New forecast layout! Learn more

10-Day Weather Forecast

Advertisements
Track Severe Weather on mobile